createdAt,value
2018-07-23T00:01:23.527Z,16.32
2018-07-23T00:03:53.128Z,16.65
2018-07-23T00:06:22.865Z,16.93
2018-07-23T00:08:53.497Z,15.68
2018-07-23T00:11:55.799Z,15.48
2018-07-23T00:14:27.342Z,16.70
2018-07-23T00:16:58.663Z,16.50
2018-07-23T00:19:29.398Z,15.43
2018-07-23T00:22:01.310Z,15.63
2018-07-23T00:25:08.143Z,15.53
2018-07-23T00:27:39.161Z,15.72
2018-07-23T00:30:09.994Z,16.95
2018-07-23T00:32:39.680Z,16.70
2018-07-23T00:35:25.492Z,17.17
2018-07-23T00:38:00.387Z,18.07
2018-07-23T00:40:30.053Z,17.90
2018-07-23T00:43:00.260Z,17.73
2018-07-23T00:45:30.012Z,17.90
2018-07-23T00:48:00.273Z,17.57
2018-07-23T00:51:04.378Z,17.50
2018-07-23T00:53:36.741Z,17.32
2018-07-23T00:56:06.435Z,18.70
2018-07-23T00:58:36.127Z,19.00
2018-07-23T01:01:05.681Z,16.65
2018-07-23T01:03:48.265Z,17.32
2018-07-23T01:06:22.236Z,17.48
2018-07-23T01:08:51.937Z,16.93
2018-07-23T01:11:21.963Z,17.50
2018-07-23T01:13:51.598Z,18.10
2018-07-23T01:16:25.131Z,17.90
2018-07-23T01:19:02.017Z,17.02
2018-07-23T01:21:35.021Z,17.45
2018-07-23T01:24:04.840Z,17.80
2018-07-23T01:26:34.443Z,16.97
2018-07-23T01:29:04.161Z,17.75
2018-07-23T01:31:33.849Z,18.67
2018-07-23T01:34:03.651Z,17.67
2018-07-23T01:36:34.471Z,17.23
2018-07-23T01:39:05.720Z,17.42
2018-07-23T01:41:36.501Z,17.80
2018-07-23T01:44:06.335Z,17.57
2018-07-23T01:46:36.021Z,17.10
2018-07-23T01:49:05.848Z,18.20
2018-07-23T01:51:35.685Z,19.77
2018-07-23T01:54:05.621Z,17.67
2018-07-23T01:56:37.170Z,18.77
2018-07-23T01:59:07.617Z,20.00
2018-07-23T02:01:37.349Z,20.08
2018-07-23T02:04:07.087Z,19.05
2018-07-23T02:06:36.678Z,19.67
2018-07-23T02:09:10.461Z,19.35
2018-07-23T02:11:39.929Z,18.98
2018-07-23T02:14:10.347Z,17.90
2018-07-23T02:16:40.572Z,19.02
2018-07-23T02:19:10.666Z,18.32
2018-07-23T02:21:40.701Z,18.20
2018-07-23T02:24:11.404Z,18.73
2018-07-23T02:26:41.063Z,18.45
2018-07-23T02:29:10.905Z,18.42
2018-07-23T02:31:40.522Z,18.85
2018-07-23T02:34:10.249Z,18.05
2018-07-23T02:36:40.312Z,17.30
2018-07-23T02:39:12.176Z,18.10
2018-07-23T02:41:42.848Z,18.07
2018-07-23T02:44:12.707Z,18.20
2018-07-23T02:46:42.302Z,19.12
2018-07-23T02:49:12.106Z,18.12
2018-07-23T02:51:42.047Z,18.52
2018-07-23T02:54:11.746Z,18.10
2018-07-23T02:56:42.342Z,19.15
2018-07-23T02:59:12.766Z,18.90
2018-07-23T03:01:43.128Z,18.30
2018-07-23T03:04:12.869Z,20.25
2018-07-23T03:06:42.525Z,18.77
2018-07-23T03:09:12.136Z,17.55
2018-07-23T03:11:41.842Z,20.02
2018-07-23T03:14:12.297Z,20.30
2018-07-23T03:16:43.383Z,19.02
2018-07-23T03:19:14.385Z,18.27
2018-07-23T03:21:45.078Z,17.55
2018-07-23T03:24:16.156Z,17.75
2018-07-23T03:26:50.762Z,19.15
2018-07-23T03:29:23.594Z,18.87
2018-07-23T03:31:57.020Z,17.62
2018-07-23T03:34:27.453Z,18.35
2018-07-23T03:36:58.608Z,17.62
2018-07-23T03:39:29.179Z,18.27
2018-07-23T03:41:59.508Z,17.10
2018-07-23T03:44:29.276Z,17.15
2018-07-23T03:46:59.088Z,18.05
2018-07-23T03:49:28.930Z,17.90
2018-07-23T03:51:58.635Z,18.20
2018-07-23T03:54:28.867Z,19.00
2018-07-23T03:56:59.231Z,18.77
2018-07-23T03:59:29.234Z,21.05
2018-07-23T04:01:59.763Z,18.77
2018-07-23T04:04:29.992Z,17.77
2018-07-23T04:06:59.975Z,19.82
2018-07-23T04:09:30.428Z,18.73
2018-07-23T04:12:01.744Z,18.23
2018-07-23T04:14:31.722Z,18.32
2018-07-23T04:17:01.386Z,18.65
2018-07-23T04:19:32.077Z,19.32
2018-07-23T04:22:02.104Z,19.52
2018-07-23T04:24:31.874Z,19.00
2018-07-23T04:27:01.543Z,18.73
2018-07-23T04:29:31.322Z,20.20
2018-07-23T04:32:01.002Z,21.02
2018-07-23T04:34:30.822Z,18.55
2018-07-23T04:37:00.551Z,19.70
2018-07-23T04:39:30.430Z,20.68
2018-07-23T04:42:00.110Z,19.57
2018-07-23T04:44:29.889Z,20.05
2018-07-23T04:46:59.629Z,20.92
2018-07-23T04:49:29.558Z,19.20
2018-07-23T04:51:59.251Z,18.87
2018-07-23T04:54:29.233Z,18.40
2018-07-23T04:56:59.038Z,20.25
2018-07-23T04:59:28.769Z,18.10
2018-07-23T05:01:58.529Z,19.40
2018-07-23T05:04:28.329Z,19.48
2018-07-23T05:06:58.350Z,19.30
2018-07-23T05:09:28.180Z,17.87
2018-07-23T05:11:57.889Z,18.02
2018-07-23T05:14:27.637Z,15.63
2018-07-23T05:16:57.390Z,14.75
2018-07-23T05:19:27.150Z,14.38
2018-07-23T05:21:56.850Z,15.72
2018-07-23T05:24:27.665Z,15.93
2018-07-23T05:26:57.410Z,15.30
2018-07-23T05:29:27.210Z,14.33
2018-07-23T05:31:57.031Z,16.30
2018-07-23T05:34:27.098Z,14.68
2018-07-23T05:36:56.770Z,16.93
2018-07-23T05:39:26.518Z,15.70
2018-07-23T05:41:56.352Z,15.05
2018-07-23T05:44:26.432Z,16.05
2018-07-23T05:46:56.251Z,15.60
2018-07-23T05:49:26.050Z,14.38
2018-07-23T05:51:56.015Z,14.85
2018-07-23T05:54:25.911Z,15.20
2018-07-23T05:56:55.677Z,15.32
2018-07-23T05:59:25.513Z,14.60
2018-07-23T06:01:55.335Z,14.58
2018-07-23T06:04:25.191Z,15.20
2018-07-23T06:06:55.015Z,14.00
2018-07-23T06:09:24.778Z,15.75
2018-07-23T06:11:54.603Z,14.68
2018-07-23T06:14:24.776Z,14.65
2018-07-23T06:16:54.519Z,14.60
2018-07-23T06:19:24.444Z,13.62
2018-07-23T06:21:54.118Z,13.32
2018-07-23T06:24:23.865Z,15.13
2018-07-23T06:26:53.623Z,16.45
2018-07-23T06:29:24.097Z,16.48
2018-07-23T06:31:53.918Z,13.93
2018-07-23T06:34:24.464Z,12.30
2018-07-23T06:36:54.223Z,12.58
2018-07-23T06:39:24.177Z,12.25
2018-07-23T06:41:53.876Z,12.73
2018-07-23T06:44:23.823Z,13.45
2018-07-23T06:46:53.580Z,13.35
2018-07-23T06:49:23.463Z,14.00
2018-07-23T06:51:53.183Z,13.38
2018-07-23T06:54:23.062Z,12.68
2018-07-23T06:56:52.863Z,10.68
2018-07-23T06:59:22.719Z,15.25
2018-07-23T07:01:52.638Z,12.20
2018-07-23T07:04:22.537Z,12.33
2018-07-23T07:06:52.318Z,12.35
2018-07-23T07:09:22.106Z,11.95
2018-07-23T07:11:51.913Z,11.03
2018-07-23T07:14:22.489Z,10.20
2018-07-23T07:16:52.329Z,10.38
2018-07-23T07:19:22.144Z,9.70
2018-07-23T07:21:51.888Z,10.15
2018-07-23T07:24:22.011Z,12.18
2018-07-23T07:26:52.185Z,13.90
2018-07-23T07:29:22.710Z,14.43
2018-07-23T07:31:52.428Z,14.40
2018-07-23T07:34:22.310Z,11.65
2018-07-23T07:36:52.688Z,11.57
2018-07-23T07:39:22.407Z,12.70
2018-07-23T07:41:52.117Z,11.83
2018-07-23T07:44:22.248Z,12.28
2018-07-23T07:46:52.073Z,11.73
2018-07-23T07:49:21.808Z,13.60
2018-07-23T07:51:51.630Z,11.50
2018-07-23T07:54:21.578Z,11.05
2018-07-23T07:56:51.311Z,11.38
2018-07-23T07:59:22.069Z,9.95
2018-07-23T08:01:51.832Z,10.70
2018-07-23T08:04:21.726Z,9.65
2018-07-23T08:06:51.450Z,10.18
2018-07-23T08:09:21.419Z,10.80
2018-07-23T08:11:51.211Z,11.43
2018-07-23T08:14:21.231Z,11.35
2018-07-23T08:16:50.991Z,10.50
2018-07-23T08:19:20.792Z,10.82
2018-07-23T08:21:50.571Z,11.65
2018-07-23T08:24:20.791Z,10.45
2018-07-23T08:26:50.591Z,11.10
2018-07-23T08:29:20.755Z,9.53
2018-07-23T08:31:50.681Z,11.18
2018-07-23T08:34:20.691Z,9.65
2018-07-23T08:36:50.436Z,11.18
2018-07-23T08:39:20.452Z,9.70
2018-07-23T08:41:50.189Z,10.45
2018-07-23T08:44:20.058Z,11.85
2018-07-23T08:46:49.930Z,10.00
2018-07-23T08:49:19.829Z,10.78
2018-07-23T08:51:49.630Z,11.05
2018-07-23T08:54:19.856Z,10.72
2018-07-23T08:56:49.718Z,9.78
2018-07-23T08:59:19.570Z,9.65
2018-07-23T09:01:49.488Z,8.93
2018-07-23T09:04:19.385Z,9.25
2018-07-23T09:06:49.529Z,10.20
2018-07-23T09:09:19.510Z,10.40
2018-07-23T09:11:49.387Z,10.38
2018-07-23T09:14:19.265Z,9.48
2018-07-23T09:16:49.145Z,8.90
2018-07-23T09:19:19.146Z,9.95
2018-07-23T09:21:48.945Z,10.38
2018-07-23T09:24:19.965Z,9.20
2018-07-23T09:26:49.725Z,9.43
2018-07-23T09:29:20.265Z,9.18
2018-07-23T09:31:50.509Z,9.55
2018-07-23T09:34:21.327Z,9.63
2018-07-23T09:36:51.187Z,9.48
2018-07-23T09:39:21.066Z,9.58
2018-07-23T09:41:50.863Z,9.53
2018-07-23T09:44:21.688Z,8.38
2018-07-23T09:46:51.624Z,10.10
2018-07-23T09:49:21.444Z,9.10
2018-07-23T09:51:51.317Z,9.08
2018-07-23T09:54:21.225Z,9.08
2018-07-23T09:56:51.104Z,9.60
2018-07-23T09:59:21.426Z,9.93
2018-07-23T10:01:51.364Z,9.73
2018-07-23T10:04:21.164Z,9.80
2018-07-23T10:06:50.985Z,9.08
2018-07-23T10:09:20.745Z,9.90
2018-07-23T10:11:50.514Z,9.75
2018-07-23T10:14:20.375Z,9.88
2018-07-23T10:16:50.361Z,9.95
2018-07-23T10:19:20.101Z,9.78
2018-07-23T10:21:49.996Z,9.68
2018-07-23T10:24:19.753Z,9.55
2018-07-23T10:26:49.733Z,9.40
2018-07-23T10:29:19.516Z,10.53
2018-07-23T10:31:49.254Z,10.25
2018-07-23T10:34:19.474Z,10.32
2018-07-23T10:36:49.414Z,10.45
2018-07-23T10:39:19.793Z,11.12
2018-07-23T10:41:49.935Z,9.90
2018-07-23T10:44:19.656Z,10.88
2018-07-23T10:46:49.534Z,10.63
2018-07-23T10:49:19.342Z,11.05
2018-07-23T10:51:49.242Z,10.55
2018-07-23T10:54:19.155Z,11.60
2018-07-23T10:56:49.015Z,10.75
2018-07-23T10:59:18.823Z,10.85
2018-07-23T11:01:48.615Z,11.22
2018-07-23T11:04:18.399Z,12.00
2018-07-23T11:06:48.215Z,11.63
2018-07-23T11:09:17.895Z,11.53
2018-07-23T11:11:47.623Z,11.35
2018-07-23T11:14:17.355Z,12.03
2018-07-23T11:16:47.283Z,11.45
2018-07-23T11:19:17.071Z,11.00
2018-07-23T11:21:47.444Z,11.40
2018-07-23T11:24:17.304Z,11.12
2018-07-23T11:26:47.246Z,11.18
2018-07-23T11:29:17.016Z,11.45
2018-07-23T11:31:46.996Z,10.80
2018-07-23T11:34:16.804Z,10.45
2018-07-23T11:36:46.745Z,11.50
2018-07-23T11:39:16.544Z,11.35
2018-07-23T11:41:46.217Z,11.28
2018-07-23T11:44:16.118Z,11.63
2018-07-23T11:46:45.918Z,11.57
2018-07-23T11:49:15.585Z,12.18
2018-07-23T11:51:45.438Z,10.70
2018-07-23T11:54:15.158Z,12.07
2018-07-23T11:56:45.027Z,11.30
2018-07-23T11:59:14.719Z,12.55
2018-07-23T12:01:44.602Z,12.37
2018-07-23T12:04:14.800Z,12.75
2018-07-23T12:06:44.644Z,11.68
2018-07-23T12:09:14.384Z,11.68
2018-07-23T12:11:44.418Z,12.78
2018-07-23T12:14:14.189Z,11.22
2018-07-23T12:16:44.148Z,12.03
2018-07-23T12:19:14.049Z,11.48
2018-07-23T12:21:43.957Z,11.55
2018-07-23T12:24:13.890Z,9.73
2018-07-23T12:26:43.790Z,9.80
2018-07-23T12:29:13.631Z,10.88
2018-07-23T12:31:43.536Z,10.68
2018-07-23T12:34:13.370Z,8.90
2018-07-23T12:36:43.292Z,8.95
2018-07-23T12:39:14.350Z,9.43
2018-07-23T12:41:44.591Z,8.15
2018-07-23T12:44:14.590Z,8.05
2018-07-23T12:46:44.592Z,9.00
2018-07-23T12:49:14.389Z,8.73
2018-07-23T12:51:44.391Z,8.30
2018-07-23T12:54:14.310Z,8.03
2018-07-23T12:56:44.170Z,8.95
2018-07-23T12:59:14.041Z,8.53
2018-07-23T13:01:44.093Z,8.45
2018-07-23T13:04:14.170Z,8.98
2018-07-23T13:06:44.105Z,8.78
2018-07-23T13:09:14.806Z,8.40
2018-07-23T13:11:44.987Z,8.63
2018-07-23T13:14:14.703Z,8.95
2018-07-23T13:16:44.984Z,9.80
2018-07-23T13:19:15.129Z,9.93
2018-07-23T13:21:45.094Z,9.10
2018-07-23T13:24:14.842Z,8.28
2018-07-23T13:26:44.703Z,9.30
2018-07-23T13:29:14.563Z,9.53
2018-07-23T13:31:44.585Z,8.98
2018-07-23T13:34:15.070Z,9.20
2018-07-23T13:36:45.070Z,9.38
2018-07-23T13:39:15.492Z,8.95
2018-07-23T13:41:45.401Z,9.55
2018-07-23T13:44:15.141Z,9.33
2018-07-23T13:46:45.221Z,9.88
2018-07-23T13:49:14.947Z,9.40
2018-07-23T13:51:44.701Z,9.30
2018-07-23T13:54:14.415Z,10.28
2018-07-23T13:56:44.547Z,9.20
2018-07-23T13:59:14.382Z,9.93
2018-07-23T14:01:44.746Z,9.40
2018-07-23T14:04:14.581Z,9.93
2018-07-23T14:06:44.605Z,9.38
2018-07-23T14:09:14.382Z,9.50
2018-07-23T14:11:44.207Z,8.90
2018-07-23T14:14:13.881Z,9.60
2018-07-23T14:16:43.908Z,9.10
2018-07-23T14:19:13.618Z,10.05
2018-07-23T14:21:43.360Z,10.25
2018-07-23T14:24:13.246Z,8.98
2018-07-23T14:26:43.098Z,9.83
2018-07-23T14:29:12.767Z,9.23
2018-07-23T14:31:42.602Z,9.28
2018-07-23T14:34:12.389Z,8.38
2018-07-23T14:36:42.238Z,10.40
2018-07-23T14:39:14.699Z,9.18
2018-07-23T14:41:44.511Z,9.63
2018-07-23T14:44:14.627Z,9.48
2018-07-23T14:46:44.669Z,9.05
2018-07-23T14:49:14.379Z,9.83
2018-07-23T14:51:44.200Z,9.18
2018-07-23T14:54:13.961Z,9.13
2018-07-23T14:56:43.969Z,8.93
2018-07-23T14:59:13.739Z,9.00
2018-07-23T15:01:43.453Z,9.08
2018-07-23T15:04:13.280Z,9.65
2018-07-23T15:06:43.160Z,8.90
2018-07-23T15:09:13.199Z,8.50
2018-07-23T15:11:43.069Z,8.83
2018-07-23T15:14:12.781Z,8.80
2018-07-23T15:16:42.681Z,9.15
2018-07-23T15:19:12.446Z,8.53
2018-07-23T15:21:42.303Z,8.35
2018-07-23T15:24:12.179Z,9.55
2018-07-23T15:26:42.039Z,8.80
2018-07-23T15:29:11.845Z,9.48
2018-07-23T15:31:41.826Z,8.85
2018-07-23T15:34:11.456Z,8.05
2018-07-23T15:36:41.399Z,7.92
2018-07-23T15:39:11.956Z,7.53
2018-07-23T15:41:41.756Z,8.33
2018-07-23T15:44:11.740Z,7.80
2018-07-23T15:46:41.659Z,7.83
2018-07-23T15:49:11.337Z,7.65
2018-07-23T15:51:41.454Z,7.95
2018-07-23T15:54:11.325Z,7.42
2018-07-23T15:56:41.234Z,7.75
2018-07-23T15:59:11.100Z,7.35
2018-07-23T16:01:40.997Z,6.92
2018-07-23T16:04:17.396Z,7.35
2018-07-23T16:06:47.234Z,6.92
2018-07-23T16:09:17.051Z,7.45
2018-07-23T16:11:46.930Z,7.45
2018-07-23T16:14:16.772Z,7.10
2018-07-23T16:16:46.571Z,7.17
2018-07-23T16:19:17.289Z,6.72
2018-07-23T16:21:47.468Z,7.30
2018-07-23T16:24:17.448Z,7.15
2018-07-23T16:26:47.367Z,7.00
2018-07-23T16:29:17.249Z,7.42
2018-07-23T16:31:47.226Z,6.87
2018-07-23T16:34:16.958Z,7.03
2018-07-23T16:36:46.841Z,7.62
2018-07-23T16:39:16.637Z,6.70
2018-07-23T16:41:47.085Z,7.45
2018-07-23T16:44:16.817Z,7.17
2018-07-23T16:46:46.657Z,7.00
2018-07-23T16:49:16.899Z,6.67
2018-07-23T16:51:47.049Z,7.70
2018-07-23T16:54:16.828Z,6.92
2018-07-23T16:56:46.516Z,7.08
2018-07-23T16:59:16.360Z,7.30
2018-07-23T17:01:46.405Z,7.30
2018-07-23T17:04:16.177Z,7.40
2018-07-23T17:06:46.143Z,6.53
2018-07-23T17:09:16.056Z,6.80
2018-07-23T17:14:37.649Z,7.37
2018-07-23T17:17:07.399Z,6.70
2018-07-23T17:19:37.303Z,6.83
2018-07-23T17:22:07.218Z,7.75
2018-07-23T17:25:00.523Z,7.03
2018-07-23T17:28:23.787Z,7.35
2018-07-23T17:31:28.159Z,6.83
2018-07-23T17:43:35.779Z,7.58
2018-07-23T17:56:00.554Z,8.38
2018-07-23T17:59:23.694Z,8.08
2018-07-23T18:14:59.397Z,8.10
2018-07-23T18:27:23.115Z,8.70
2018-07-23T18:30:03.895Z,8.98
2018-07-23T18:46:37.104Z,10.00
2018-07-23T19:02:31.634Z,10.15
2018-07-23T19:05:03.035Z,10.45
2018-07-23T19:07:32.808Z,11.10
2018-07-23T19:10:02.784Z,10.43
2018-07-23T19:12:32.755Z,10.35
2018-07-23T19:15:23.083Z,10.40
2018-07-23T19:17:58.202Z,10.48
2018-07-23T19:20:28.367Z,10.43
2018-07-23T19:29:58.967Z,11.00
2018-07-23T19:39:03.959Z,11.68
2018-07-23T19:41:52.711Z,10.68
2018-07-23T19:48:00.020Z,11.35
2018-07-23T20:00:50.456Z,11.68
2018-07-23T20:03:45.554Z,11.40
2018-07-23T20:09:38.295Z,10.80
2018-07-23T20:12:18.025Z,12.35
2018-07-23T20:41:15.768Z,12.37
2018-07-23T20:43:49.994Z,12.63
2018-07-23T20:53:29.324Z,11.83
2018-07-23T20:56:55.333Z,12.20
2018-07-23T21:00:25.132Z,11.53
2018-07-23T21:02:57.997Z,12.43
2018-07-23T21:08:50.691Z,12.58
2018-07-23T21:14:54.732Z,11.27
2018-07-23T21:20:48.265Z,12.37
2018-07-23T21:30:13.151Z,12.43
2018-07-23T21:45:39.287Z,13.27
2018-07-23T21:48:54.142Z,12.67
2018-07-23T21:54:48.589Z,11.97
2018-07-23T22:04:15.123Z,12.70
2018-07-23T22:14:53.985Z,13.70
2018-07-23T22:20:48.425Z,13.17
2018-07-23T22:31:25.376Z,12.73
2018-07-23T22:34:57.242Z,13.23
2018-07-23T22:38:30.544Z,13.73
2018-07-23T22:45:38.319Z,12.67
2018-07-23T22:49:03.049Z,13.40
2018-07-23T22:54:59.185Z,14.77
2018-07-23T23:00:55.612Z,14.07
2018-07-23T23:04:15.783Z,13.37
2018-07-23T23:13:24.174Z,14.37
2018-07-23T23:15:53.938Z,14.90
2018-07-23T23:18:24.018Z,14.83
2018-07-23T23:20:53.802Z,16.13
2018-07-23T23:23:24.063Z,16.57
2018-07-23T23:25:54.057Z,16.07
2018-07-23T23:28:24.104Z,14.93
2018-07-23T23:30:53.878Z,16.00
2018-07-23T23:33:23.737Z,15.17
2018-07-23T23:35:53.749Z,14.70
2018-07-23T23:38:23.816Z,15.23
2018-07-23T23:40:53.647Z,15.83
2018-07-23T23:44:15.868Z,15.70
2018-07-23T23:47:51.097Z,15.80
2018-07-23T23:51:16.148Z,14.33
2018-07-23T23:57:18.142Z,16.20
